sensor_id;sensor_type;location;lat;lon;timestamp;pressure;altitude;pressure_sealevel;temperature;humidity
75418;BME280;63997;52.112;5.420;2023-02-28T00:01:12;103348.72;;;0.14;83.11
75418;BME280;63997;52.112;5.420;2023-02-28T00:03:39;103355.38;;;0.17;82.93
75418;BME280;63997;52.112;5.420;2023-02-28T00:06:07;103349.97;;;0.18;83.10
75418;BME280;63997;52.112;5.420;2023-02-28T00:08:35;103345.75;;;0.17;83.05
75418;BME280;63997;52.112;5.420;2023-02-28T00:11:06;103357.97;;;0.17;83.15
75418;BME280;63997;52.112;5.420;2023-02-28T00:13:34;103351.59;;;0.19;82.70
75418;BME280;63997;52.112;5.420;2023-02-28T00:16:06;103364.28;;;0.22;82.77
75418;BME280;63997;52.112;5.420;2023-02-28T00:18:34;103364.13;;;0.24;82.80
75418;BME280;63997;52.112;5.420;2023-02-28T00:21:01;103369.75;;;0.28;82.98
75418;BME280;63997;52.112;5.420;2023-02-28T00:23:29;103367.41;;;0.33;83.18
75418;BME280;63997;52.112;5.420;2023-02-28T00:25:55;103367.03;;;0.36;83.02
75418;BME280;63997;52.112;5.420;2023-02-28T00:28:22;103357.81;;;0.40;83.43
75418;BME280;63997;52.112;5.420;2023-02-28T00:30:48;103363.47;;;0.43;83.68
75418;BME280;63997;52.112;5.420;2023-02-28T00:33:15;103353.03;;;0.50;83.76
75418;BME280;63997;52.112;5.420;2023-02-28T00:35:41;103352.28;;;0.56;83.59
75418;BME280;63997;52.112;5.420;2023-02-28T00:38:08;103350.31;;;0.58;83.52
75418;BME280;63997;52.112;5.420;2023-02-28T00:40:34;103356.78;;;0.62;83.66
75418;BME280;63997;52.112;5.420;2023-02-28T00:43:01;103355.38;;;0.66;83.74
75418;BME280;63997;52.112;5.420;2023-02-28T00:45:27;103349.78;;;0.69;84.19
75418;BME280;63997;52.112;5.420;2023-02-28T00:47:53;103346.59;;;0.74;84.17
75418;BME280;63997;52.112;5.420;2023-02-28T00:50:20;103349.63;;;0.77;84.28
75418;BME280;63997;52.112;5.420;2023-02-28T00:52:47;103357.72;;;0.83;84.23
75418;BME280;63997;52.112;5.420;2023-02-28T00:55:14;103351.31;;;0.85;84.17
75418;BME280;63997;52.112;5.420;2023-02-28T00:57:41;103350.09;;;0.88;84.05
75418;BME280;63997;52.112;5.420;2023-02-28T01:00:09;103354.97;;;0.91;84.31
75418;BME280;63997;52.112;5.420;2023-02-28T01:02:37;103353.56;;;0.95;84.32
75418;BME280;63997;52.112;5.420;2023-02-28T01:05:03;103356.44;;;1.00;84.27
75418;BME280;63997;52.112;5.420;2023-02-28T01:07:30;103352.63;;;1.02;84.37
75418;BME280;63997;52.112;5.420;2023-02-28T01:09:56;103357.09;;;1.09;84.57
75418;BME280;63997;52.112;5.420;2023-02-28T01:12:23;103364.38;;;1.13;84.35
75418;BME280;63997;52.112;5.420;2023-02-28T01:14:49;103357.94;;;1.16;84.52
75418;BME280;63997;52.112;5.420;2023-02-28T01:17:15;103353.13;;;1.19;84.30
75418;BME280;63997;52.112;5.420;2023-02-28T01:19:42;103351.09;;;1.21;84.19
75418;BME280;63997;52.112;5.420;2023-02-28T01:22:08;103355.19;;;1.24;84.21
75418;BME280;63997;52.112;5.420;2023-02-28T01:24:34;103357.59;;;1.25;84.11
75418;BME280;63997;52.112;5.420;2023-02-28T01:27:01;103351.94;;;1.28;84.21
75418;BME280;63997;52.112;5.420;2023-02-28T01:29:27;103346.31;;;1.31;84.02
75418;BME280;63997;52.112;5.420;2023-02-28T01:31:53;103343.72;;;1.31;84.02
75418;BME280;63997;52.112;5.420;2023-02-28T01:34:20;103339.88;;;1.34;84.13
75418;BME280;63997;52.112;5.420;2023-02-28T01:36:46;103338.06;;;1.35;84.02
75418;BME280;63997;52.112;5.420;2023-02-28T01:39:13;103339.50;;;1.37;84.07
75418;BME280;63997;52.112;5.420;2023-02-28T01:41:39;103341.72;;;1.40;83.95
75418;BME280;63997;52.112;5.420;2023-02-28T01:47:11;103340.97;;;1.46;83.75
75418;BME280;63997;52.112;5.420;2023-02-28T01:49:39;103333.50;;;1.50;83.85
75418;BME280;63997;52.112;5.420;2023-02-28T01:52:06;103336.75;;;1.52;83.99
75418;BME280;63997;52.112;5.420;2023-02-28T01:54:34;103328.03;;;1.51;83.95
75418;BME280;63997;52.112;5.420;2023-02-28T01:57:06;103330.50;;;1.53;84.15
75418;BME280;63997;52.112;5.420;2023-02-28T01:59:37;103326.06;;;1.53;83.94
75418;BME280;63997;52.112;5.420;2023-02-28T02:02:06;103324.22;;;1.54;84.04
75418;BME280;63997;52.112;5.420;2023-02-28T02:04:38;103318.59;;;1.57;84.10
75418;BME280;63997;52.112;5.420;2023-02-28T02:07:06;103313.34;;;1.57;84.26
75418;BME280;63997;52.112;5.420;2023-02-28T02:09:33;103312.34;;;1.58;84.06
75418;BME280;63997;52.112;5.420;2023-02-28T02:12:01;103304.28;;;1.59;83.91
75418;BME280;63997;52.112;5.420;2023-02-28T02:14:49;103311.75;;;1.63;84.09
75418;BME280;63997;52.112;5.420;2023-02-28T02:17:37;103305.91;;;1.67;83.94
75418;BME280;63997;52.112;5.420;2023-02-28T02:36:58;103323.09;;;1.76;83.69
75418;BME280;63997;52.112;5.420;2023-02-28T02:39:40;103321.88;;;1.79;83.65
75418;BME280;63997;52.112;5.420;2023-02-28T02:42:23;103313.81;;;1.80;83.67
75418;BME280;63997;52.112;5.420;2023-02-28T02:44:59;103312.00;;;1.81;83.58
75418;BME280;63997;52.112;5.420;2023-02-28T02:47:29;103319.66;;;1.82;83.54
75418;BME280;63997;52.112;5.420;2023-02-28T02:50:00;103320.28;;;1.84;83.75
75418;BME280;63997;52.112;5.420;2023-02-28T02:52:34;103316.66;;;1.85;83.71
75418;BME280;63997;52.112;5.420;2023-02-28T02:55:03;103316.66;;;1.85;83.65
75418;BME280;63997;52.112;5.420;2023-02-28T02:57:36;103319.69;;;1.89;83.70
75418;BME280;63997;52.112;5.420;2023-02-28T03:00:05;103321.50;;;1.89;83.68
75418;BME280;63997;52.112;5.420;2023-02-28T03:02:36;103318.50;;;1.92;83.97
75418;BME280;63997;52.112;5.420;2023-02-28T03:05:41;103325.34;;;1.93;83.80
75418;BME280;63997;52.112;5.420;2023-02-28T03:08:09;103320.09;;;1.93;83.77
75418;BME280;63997;52.112;5.420;2023-02-28T03:10:37;103323.53;;;1.93;83.80
75418;BME280;63997;52.112;5.420;2023-02-28T03:13:12;103331.19;;;1.95;84.00
75418;BME280;63997;52.112;5.420;2023-02-28T03:15:57;103323.13;;;1.96;83.93
75418;BME280;63997;52.112;5.420;2023-02-28T03:18:36;103320.31;;;1.98;84.01
75418;BME280;63997;52.112;5.420;2023-02-28T03:24:03;103326.16;;;2.00;84.05
75418;BME280;63997;52.112;5.420;2023-02-28T03:26:31;103322.72;;;1.99;84.03
75418;BME280;63997;52.112;5.420;2023-02-28T03:29:05;103327.16;;;1.99;84.21
75418;BME280;63997;52.112;5.420;2023-02-28T03:31:43;103327.16;;;1.99;84.30
75418;BME280;63997;52.112;5.420;2023-02-28T03:34:24;103326.16;;;2.00;84.18
75418;BME280;63997;52.112;5.420;2023-02-28T03:36:57;103326.38;;;1.98;84.39
75418;BME280;63997;52.112;5.420;2023-02-28T03:39:42;103331.63;;;1.98;84.49
75418;BME280;63997;52.112;5.420;2023-02-28T03:42:22;103328.78;;;2.00;84.71
75418;BME280;63997;52.112;5.420;2023-02-28T03:44:57;103334.03;;;2.00;84.66
75418;BME280;63997;52.112;5.420;2023-02-28T03:47:28;103332.84;;;2.02;84.60
75418;BME280;63997;52.112;5.420;2023-02-28T03:50:08;103341.69;;;2.01;84.34
75418;BME280;63997;52.112;5.420;2023-02-28T03:53:00;103340.28;;;1.99;84.16
75418;BME280;63997;52.112;5.420;2023-02-28T03:55:35;103339.28;;;2.00;84.41
75418;BME280;63997;52.112;5.420;2023-02-28T03:58:35;103340.88;;;2.01;84.23
75418;BME280;63997;52.112;5.420;2023-02-28T04:01:13;103339.88;;;2.02;84.19
75418;BME280;63997;52.112;5.420;2023-02-28T04:03:41;103345.97;;;2.02;84.00
75418;BME280;63997;52.112;5.420;2023-02-28T04:06:14;103337.25;;;2.02;83.97
75418;BME280;63997;52.112;5.420;2023-02-28T04:08:41;103335.03;;;1.99;83.73
75418;BME280;63997;52.112;5.420;2023-02-28T04:11:34;103338.69;;;1.98;83.52
75418;BME280;63997;52.112;5.420;2023-02-28T04:14:02;103337.66;;;1.99;82.74
75418;BME280;63997;52.112;5.420;2023-02-28T04:16:30;103350.19;;;1.97;81.82
75418;BME280;63997;52.112;5.420;2023-02-28T04:19:02;103354.00;;;1.94;80.60
75418;BME280;63997;52.112;5.420;2023-02-28T04:21:30;103338.03;;;1.89;79.34
75418;BME280;63997;52.112;5.420;2023-02-28T04:23:57;103345.69;;;1.84;78.37
75418;BME280;63997;52.112;5.420;2023-02-28T04:26:30;103353.19;;;1.80;78.08
75418;BME280;63997;52.112;5.420;2023-02-28T04:28:58;103346.50;;;1.78;77.66
75418;BME280;63997;52.112;5.420;2023-02-28T04:31:24;103356.38;;;1.76;77.77
75418;BME280;63997;52.112;5.420;2023-02-28T04:33:51;103354.56;;;1.76;78.00
75418;BME280;63997;52.112;5.420;2023-02-28T04:36:18;103350.34;;;1.75;78.08
75418;BME280;63997;52.112;5.420;2023-02-28T04:38:44;103349.31;;;1.76;78.02
75418;BME280;63997;52.112;5.420;2023-02-28T04:41:14;103356.38;;;1.76;78.04
75418;BME280;63997;52.112;5.420;2023-02-28T04:43:41;103360.19;;;1.73;77.82
75418;BME280;63997;52.112;5.420;2023-02-28T04:46:07;103364.63;;;1.73;77.95
75418;BME280;63997;52.112;5.420;2023-02-28T04:48:37;103368.47;;;1.70;77.91
75418;BME280;63997;52.112;5.420;2023-02-28T04:51:10;103359.38;;;1.66;77.51
75418;BME280;63997;52.112;5.420;2023-02-28T04:53:38;103352.50;;;1.65;77.46
75418;BME280;63997;52.112;5.420;2023-02-28T04:56:06;103351.28;;;1.61;77.60
75418;BME280;63997;52.112;5.420;2023-02-28T04:58:33;103358.56;;;1.59;77.75
75418;BME280;63997;52.112;5.420;2023-02-28T05:01:05;103357.91;;;1.57;78.16
75418;BME280;63997;52.112;5.420;2023-02-28T05:03:39;103361.97;;;1.53;78.42
75418;BME280;63997;52.112;5.420;2023-02-28T05:06:10;103356.69;;;1.46;78.49
75418;BME280;63997;52.112;5.420;2023-02-28T05:08:37;103355.25;;;1.44;79.24
75418;BME280;63997;52.112;5.420;2023-02-28T05:11:07;103346.16;;;1.40;79.60
75418;BME280;63997;52.112;5.420;2023-02-28T05:13:38;103344.75;;;1.37;79.94
75418;BME280;63997;52.112;5.420;2023-02-28T05:16:04;103347.56;;;1.36;80.29
75418;BME280;63997;52.112;5.420;2023-02-28T05:18:31;103356.81;;;1.31;80.71
75418;BME280;63997;52.112;5.420;2023-02-28T05:20:57;103365.06;;;1.28;80.94
75418;BME280;63997;52.112;5.420;2023-02-28T05:23:23;103367.06;;;1.26;81.30
75418;BME280;63997;52.112;5.420;2023-02-28T05:25:50;103362.84;;;1.25;81.35
75418;BME280;63997;52.112;5.420;2023-02-28T05:28:18;103369.88;;;1.25;81.44
75418;BME280;63997;52.112;5.420;2023-02-28T05:30:45;103367.44;;;1.23;81.79
75418;BME280;63997;52.112;5.420;2023-02-28T05:33:12;103366.47;;;1.24;81.82
75418;BME280;63997;52.112;5.420;2023-02-28T05:35:40;103361.63;;;1.28;82.06
75418;BME280;63997;52.112;5.420;2023-02-28T05:38:06;103357.00;;;1.30;82.30
75418;BME280;63997;52.112;5.420;2023-02-28T05:40:33;103363.66;;;1.32;82.71
75418;BME280;63997;52.112;5.420;2023-02-28T05:43:00;103356.41;;;1.35;82.95
75418;BME280;63997;52.112;5.420;2023-02-28T05:45:26;103355.59;;;1.34;83.24
75418;BME280;63997;52.112;5.420;2023-02-28T05:47:53;103356.41;;;1.35;83.35
75418;BME280;63997;52.112;5.420;2023-02-28T05:50:20;103359.03;;;1.35;83.48
75418;BME280;63997;52.112;5.420;2023-02-28T05:52:50;103355.59;;;1.34;83.68
75418;BME280;63997;52.112;5.420;2023-02-28T05:55:16;103362.66;;;1.33;83.70
75418;BME280;63997;52.112;5.420;2023-02-28T05:57:43;103360.03;;;1.33;83.96
75418;BME280;63997;52.112;5.420;2023-02-28T06:00:10;103369.72;;;1.33;84.01
75418;BME280;63997;52.112;5.420;2023-02-28T06:02:38;103371.53;;;1.32;84.16
75418;BME280;63997;52.112;5.420;2023-02-28T06:05:13;103367.28;;;1.31;84.45
75418;BME280;63997;52.112;5.420;2023-02-28T06:07:39;103365.69;;;1.30;84.40
75418;BME280;63997;52.112;5.420;2023-02-28T06:10:06;103358.84;;;1.29;84.60
75418;BME280;63997;52.112;5.420;2023-02-28T06:12:32;103367.66;;;1.28;84.76
75418;BME280;63997;52.112;5.420;2023-02-28T06:14:59;103360.81;;;1.27;84.68
75418;BME280;63997;52.112;5.420;2023-02-28T06:17:25;103350.53;;;1.26;84.92
75418;BME280;63997;52.112;5.420;2023-02-28T06:19:51;103361.81;;;1.26;85.03
75418;BME280;63997;52.112;5.420;2023-02-28T06:22:18;103358.41;;;1.26;85.02
75418;BME280;63997;52.112;5.420;2023-02-28T06:24:44;103355.97;;;1.24;84.95
75418;BME280;63997;52.112;5.420;2023-02-28T06:27:10;103344.28;;;1.27;85.06
75418;BME280;63997;52.112;5.420;2023-02-28T06:29:37;103351.94;;;1.28;85.30
75418;BME280;63997;52.112;5.420;2023-02-28T06:32:05;103342.47;;;1.27;85.21
75418;BME280;63997;52.112;5.420;2023-02-28T06:34:32;103358.19;;;1.27;85.38
75418;BME280;63997;52.112;5.420;2023-02-28T06:37:00;103352.94;;;1.27;85.42
75418;BME280;63997;52.112;5.420;2023-02-28T06:39:30;103346.69;;;1.28;85.22
75418;BME280;63997;52.112;5.420;2023-02-28T06:41:56;103360.81;;;1.27;85.44
75418;BME280;63997;52.112;5.420;2023-02-28T06:44:23;103357.81;;;1.30;85.53
75418;BME280;63997;52.112;5.420;2023-02-28T06:46:50;103349.75;;;1.32;85.25
75418;BME280;63997;52.112;5.420;2023-02-28T06:49:17;103358.63;;;1.31;85.38
75418;BME280;63997;52.112;5.420;2023-02-28T06:51:44;103357.81;;;1.30;85.68
75418;BME280;63997;52.112;5.420;2023-02-28T06:54:11;103360.03;;;1.33;85.44
75418;BME280;63997;52.112;5.420;2023-02-28T06:56:38;103369.91;;;1.31;85.62
75418;BME280;63997;52.112;5.420;2023-02-28T06:59:05;103367.09;;;1.33;85.60
75418;BME280;63997;52.112;5.420;2023-02-28T07:01:32;103371.16;;;1.36;85.64
75418;BME280;63997;52.112;5.420;2023-02-28T07:03:59;103377.22;;;1.36;85.69
75418;BME280;63997;52.112;5.420;2023-02-28T07:06:26;103381.44;;;1.37;85.89
75418;BME280;63997;52.112;5.420;2023-02-28T07:08:53;103373.38;;;1.39;86.11
75418;BME280;63997;52.112;5.420;2023-02-28T07:11:21;103372.38;;;1.40;86.22
75418;BME280;63997;52.112;5.420;2023-02-28T07:13:53;103377.81;;;1.38;85.86
75418;BME280;63997;52.112;5.420;2023-02-28T07:16:20;103376.19;;;1.37;85.87
75418;BME280;63997;52.112;5.420;2023-02-28T07:18:47;103368.75;;;1.41;85.91
75418;BME280;63997;52.112;5.420;2023-02-28T07:21:14;103367.34;;;1.45;86.03
75418;BME280;63997;52.112;5.420;2023-02-28T07:23:41;103377.84;;;1.45;85.79
75418;BME280;63997;52.112;5.420;2023-02-28T07:26:12;103383.72;;;1.47;85.92
75418;BME280;63997;52.112;5.420;2023-02-28T07:28:45;103384.31;;;1.49;85.95
75418;BME280;63997;52.112;5.420;2023-02-28T07:31:13;103383.94;;;1.52;85.85
75418;BME280;63997;52.112;5.420;2023-02-28T07:33:43;103380.72;;;1.56;86.15
75418;BME280;63997;52.112;5.420;2023-02-28T07:36:15;103371.03;;;1.57;85.90
75418;BME280;63997;52.112;5.420;2023-02-28T07:38:46;103370.84;;;1.58;85.77
75418;BME280;63997;52.112;5.420;2023-02-28T07:41:21;103379.75;;;1.64;85.84
75418;BME280;63997;52.112;5.420;2023-02-28T07:43:47;103390.84;;;1.66;85.72
75418;BME280;63997;52.112;5.420;2023-02-28T07:46:16;103396.28;;;1.65;85.63
75418;BME280;63997;52.112;5.420;2023-02-28T07:48:44;103383.59;;;1.68;85.68
75418;BME280;63997;52.112;5.420;2023-02-28T07:51:10;103392.47;;;1.74;85.85
75418;BME280;63997;52.112;5.420;2023-02-28T07:53:37;103389.69;;;1.82;85.88
75418;BME280;63997;52.112;5.420;2023-02-28T07:56:03;103391.31;;;1.90;85.91
75418;BME280;63997;52.112;5.420;2023-02-28T07:58:30;103402.44;;;1.92;85.58
75418;BME280;63997;52.112;5.420;2023-02-28T08:01:05;103399.19;;;1.90;85.52
75418;BME280;63997;52.112;5.420;2023-02-28T08:03:32;103385.91;;;1.98;85.60
75418;BME280;63997;52.112;5.420;2023-02-28T08:05:58;103396.22;;;1.99;85.29
75418;BME280;63997;52.112;5.420;2023-02-28T08:08:24;103402.47;;;2.05;85.55
75418;BME280;63997;52.112;5.420;2023-02-28T08:10:55;103416.41;;;2.05;85.37
75418;BME280;63997;52.112;5.420;2023-02-28T08:13:22;103406.31;;;2.02;85.20
75418;BME280;63997;52.112;5.420;2023-02-28T08:15:49;103414.19;;;2.02;85.12
75418;BME280;63997;52.112;5.420;2023-02-28T08:18:15;103401.47;;;2.06;85.14
75418;BME280;63997;52.112;5.420;2023-02-28T08:20:41;103415.22;;;2.08;84.92
75418;BME280;63997;52.112;5.420;2023-02-28T08:23:08;103422.09;;;2.09;84.76
75418;BME280;63997;52.112;5.420;2023-02-28T08:25:35;103418.03;;;2.13;84.62
75418;BME280;63997;52.112;5.420;2023-02-28T08:28:02;103404.94;;;2.20;84.50
75418;BME280;63997;52.112;5.420;2023-02-28T08:30:28;103414.44;;;2.27;84.17
75418;BME280;63997;52.112;5.420;2023-02-28T08:32:55;103419.31;;;2.30;83.62
75418;BME280;63997;52.112;5.420;2023-02-28T08:35:22;103414.06;;;2.30;82.70
75418;BME280;63997;52.112;5.420;2023-02-28T08:37:49;103404.16;;;2.32;82.97
75418;BME280;63997;52.112;5.420;2023-02-28T08:40:16;103407.19;;;2.36;82.58
75418;BME280;63997;52.112;5.420;2023-02-28T08:42:45;103414.88;;;2.37;81.68
75418;BME280;63997;52.112;5.420;2023-02-28T08:45:12;103406.56;;;2.41;81.17
75418;BME280;63997;52.112;5.420;2023-02-28T08:47:39;103406.19;;;2.50;80.58
75418;BME280;63997;52.112;5.420;2023-02-28T08:50:07;103411.22;;;2.52;80.41
75418;BME280;63997;52.112;5.420;2023-02-28T08:52:33;103402.38;;;2.59;79.66
75418;BME280;63997;52.112;5.420;2023-02-28T08:55:00;103404.41;;;2.64;78.51
75418;BME280;63997;52.112;5.420;2023-02-28T08:57:26;103396.28;;;2.72;78.68
75418;BME280;63997;52.112;5.420;2023-02-28T08:59:53;103397.09;;;2.79;78.41
75418;BME280;63997;52.112;5.420;2023-02-28T09:02:19;103407.00;;;2.90;77.58
75418;BME280;63997;52.112;5.420;2023-02-28T09:04:46;103407.97;;;3.03;76.53
75418;BME280;63997;52.112;5.420;2023-02-28T09:07:12;103400.66;;;3.38;75.67
75418;BME280;63997;52.112;5.420;2023-02-28T09:09:39;103396.09;;;4.35;72.91
75418;BME280;63997;52.112;5.420;2023-02-28T09:12:24;103391.41;;;4.87;68.94
75418;BME280;63997;52.112;5.420;2023-02-28T09:14:52;103389.47;;;5.00;67.36
75418;BME280;63997;52.112;5.420;2023-02-28T09:17:19;103396.03;;;5.65;66.19
75418;BME280;63997;52.112;5.420;2023-02-28T09:19:48;103391.84;;;6.47;63.50
75418;BME280;63997;52.112;5.420;2023-02-28T09:22:14;103396.53;;;6.33;59.97
75418;BME280;63997;52.112;5.420;2023-02-28T09:24:41;103400.44;;;5.71;59.52
75418;BME280;63997;52.112;5.420;2023-02-28T09:27:07;103395.84;;;5.48;59.32
75418;BME280;63997;52.112;5.420;2023-02-28T09:29:34;103393.78;;;5.50;58.82
75418;BME280;63997;52.112;5.420;2023-02-28T09:32:01;103389.75;;;5.47;56.77
75418;BME280;63997;52.112;5.420;2023-02-28T09:34:28;103392.25;;;5.42;57.80
75418;BME280;63997;52.112;5.420;2023-02-28T09:36:57;103397.09;;;5.27;57.19
75418;BME280;63997;52.112;5.420;2023-02-28T09:39:24;103403.25;;;5.21;56.32
75418;BME280;63997;52.112;5.420;2023-02-28T09:41:53;103405.22;;;5.07;55.60
75418;BME280;63997;52.112;5.420;2023-02-28T09:44:27;103402.56;;;4.89;53.96
75418;BME280;63997;52.112;5.420;2023-02-28T09:47:01;103401.09;;;4.93;56.20
75418;BME280;63997;52.112;5.420;2023-02-28T09:49:41;103402.34;;;5.09;55.29
75418;BME280;63997;52.112;5.420;2023-02-28T09:52:29;103407.22;;;5.12;54.47
75418;BME280;63997;52.112;5.420;2023-02-28T09:57:49;103407.50;;;5.22;54.63
75418;BME280;63997;52.112;5.420;2023-02-28T10:05:24;103399.00;;;5.20;53.10
75418;BME280;63997;52.112;5.420;2023-02-28T10:13:00;103397.09;;;5.27;53.11
75418;BME280;63997;52.112;5.420;2023-02-28T10:15:30;103398.09;;;5.63;51.95
75418;BME280;63997;52.112;5.420;2023-02-28T10:18:00;103386.03;;;5.85;49.22
75418;BME280;63997;52.112;5.420;2023-02-28T10:20:37;103380.91;;;5.72;50.84
75418;BME280;63997;52.112;5.420;2023-02-28T10:23:21;103380.69;;;5.92;50.24
75418;BME280;63997;52.112;5.420;2023-02-28T10:25:55;103381.88;;;5.96;51.91
75418;BME280;63997;52.112;5.420;2023-02-28T10:28:24;103380.69;;;5.92;50.74
75418;BME280;63997;52.112;5.420;2023-02-28T10:30:53;103380.81;;;5.97;48.80
75418;BME280;63997;52.112;5.420;2023-02-28T10:33:25;103379.25;;;6.07;49.33
75418;BME280;63997;52.112;5.420;2023-02-28T10:35:54;103377.75;;;6.12;48.45
75418;BME280;63997;52.112;5.420;2023-02-28T10:38:24;103386.56;;;6.05;47.57
75418;BME280;63997;52.112;5.420;2023-02-28T10:40:51;103379.72;;;6.16;48.55
75418;BME280;63997;52.112;5.420;2023-02-28T10:43:20;103392.94;;;6.28;47.56
75418;BME280;63997;52.112;5.420;2023-02-28T10:45:59;103387.53;;;6.23;46.68
75418;BME280;63997;52.112;5.420;2023-02-28T10:49:00;103390.69;;;6.31;47.79
75418;BME280;63997;52.112;5.420;2023-02-28T10:51:34;103378.97;;;6.39;45.83
75418;BME280;63997;52.112;5.420;2023-02-28T10:54:02;103382.06;;;6.36;46.47
75418;BME280;63997;52.112;5.420;2023-02-28T10:56:29;103376.09;;;6.29;47.21
75418;BME280;63997;52.112;5.420;2023-02-28T10:59:00;103369.22;;;6.51;48.16
75418;BME280;63997;52.112;5.420;2023-02-28T11:03:57;103362.44;;;6.91;46.58
75418;BME280;63997;52.112;5.420;2023-02-28T11:06:33;103352.28;;;6.99;45.88
75418;BME280;63997;52.112;5.420;2023-02-28T11:09:13;103354.00;;;7.05;45.63
75418;BME280;63997;52.112;5.420;2023-02-28T11:11:44;103359.88;;;7.07;45.73
75418;BME280;63997;52.112;5.420;2023-02-28T11:14:20;103356.88;;;7.15;46.55
75418;BME280;63997;52.112;5.420;2023-02-28T11:16:48;103353.25;;;7.33;46.54
75418;BME280;63997;52.112;5.420;2023-02-28T11:19:40;103350.16;;;7.36;46.10
75418;BME280;63997;52.112;5.420;2023-02-28T11:22:10;103355.41;;;7.48;45.16
75418;BME280;63997;52.112;5.420;2023-02-28T11:24:45;103346.06;;;7.46;43.96
75418;BME280;63997;52.112;5.420;2023-02-28T11:29:59;103347.47;;;7.48;44.52
75418;BME280;63997;52.112;5.420;2023-02-28T11:32:30;103345.31;;;7.62;44.87
75418;BME280;63997;52.112;5.420;2023-02-28T11:35:03;103337.56;;;7.72;44.12
75418;BME280;63997;52.112;5.420;2023-02-28T11:37:31;103332.53;;;7.87;45.57
75418;BME280;63997;52.112;5.420;2023-02-28T11:39:58;103331.66;;;7.99;43.71
75418;BME280;63997;52.112;5.420;2023-02-28T11:48:49;103324.56;;;7.71;43.48
75418;BME280;63997;52.112;5.420;2023-02-28T11:51:24;103320.66;;;7.90;42.39
75418;BME280;63997;52.112;5.420;2023-02-28T11:56:39;103316.06;;;8.19;42.87
75418;BME280;63997;52.112;5.420;2023-02-28T12:07:26;103317.53;;;7.93;42.02
75418;BME280;63997;52.112;5.420;2023-02-28T12:10:10;103318.50;;;8.04;42.13
75418;BME280;63997;52.112;5.420;2023-02-28T12:15:52;103319.38;;;7.76;42.47
75418;BME280;63997;52.112;5.420;2023-02-28T12:18:49;103319.75;;;7.84;43.15
75418;BME280;63997;52.112;5.420;2023-02-28T12:21:37;103313.22;;;8.04;41.52
75418;BME280;63997;52.112;5.420;2023-02-28T12:26:48;103309.50;;;7.88;40.91
75418;BME280;63997;52.112;5.420;2023-02-28T12:29:28;103301.38;;;7.78;41.19
75418;BME280;63997;52.112;5.420;2023-02-28T12:32:01;103295.91;;;7.84;41.65
75418;BME280;63997;52.112;5.420;2023-02-28T12:34:48;103289.09;;;7.88;41.46
75418;BME280;63997;52.112;5.420;2023-02-28T12:37:27;103294.94;;;7.74;40.81
75418;BME280;63997;52.112;5.420;2023-02-28T12:40:01;103295.44;;;7.71;40.82
75418;BME280;63997;52.112;5.420;2023-02-28T12:42:35;103303.19;;;7.60;40.27
75418;BME280;63997;52.112;5.420;2023-02-28T12:45:10;103296.75;;;7.56;40.19
75418;BME280;63997;52.112;5.420;2023-02-28T12:47:40;103293.91;;;7.46;40.96
75418;BME280;63997;52.112;5.420;2023-02-28T12:50:10;103288.72;;;7.51;41.50
75418;BME280;63997;52.112;5.420;2023-02-28T12:52:56;103287.06;;;7.62;41.22
75418;BME280;63997;52.112;5.420;2023-02-28T13:03:44;103265.81;;;7.90;40.37
75418;BME280;63997;52.112;5.420;2023-02-28T13:06:28;103267.66;;;8.07;40.59
75418;BME280;63997;52.112;5.420;2023-02-28T13:09:08;103262.03;;;8.20;41.01
75418;BME280;63997;52.112;5.420;2023-02-28T13:11:42;103258.75;;;8.13;41.11
75418;BME280;63997;52.112;5.420;2023-02-28T13:17:09;103258.75;;;8.13;41.00
75418;BME280;63997;52.112;5.420;2023-02-28T13:19:59;103256.81;;;8.25;40.97
75418;BME280;63997;52.112;5.420;2023-02-28T13:24:53;103255.59;;;8.33;40.49
75418;BME280;63997;52.112;5.420;2023-02-28T13:27:23;103262.75;;;8.32;40.78
75418;BME280;63997;52.112;5.420;2023-02-28T13:29:52;103255.03;;;8.31;39.75
75418;BME280;63997;52.112;5.420;2023-02-28T13:39:59;103242.00;;;8.46;40.68
75418;BME280;63997;52.112;5.420;2023-02-28T13:42:34;103243.81;;;8.62;41.11
75418;BME280;63997;52.112;5.420;2023-02-28T13:47:41;103239.22;;;8.36;38.98
75418;BME280;63997;52.112;5.420;2023-02-28T13:50:36;103234.31;;;8.28;39.64
75418;BME280;63997;52.112;5.420;2023-02-28T13:56:01;103228.69;;;8.41;39.97
75418;BME280;63997;52.112;5.420;2023-02-28T13:58:50;103229.34;;;8.31;39.27
75418;BME280;63997;52.112;5.420;2023-02-28T14:01:34;103222.72;;;8.34;39.22
75418;BME280;63997;52.112;5.420;2023-02-28T14:06:59;103225.22;;;8.40;39.86
75418;BME280;63997;52.112;5.420;2023-02-28T14:09:35;103218.56;;;8.38;39.24
75418;BME280;63997;52.112;5.420;2023-02-28T14:18:17;103212.47;;;8.37;38.57
75418;BME280;63997;52.112;5.420;2023-02-28T14:20:47;103217.44;;;8.34;39.30
75418;BME280;63997;52.112;5.420;2023-02-28T14:23:32;103211.41;;;8.38;39.22
75418;BME280;63997;52.112;5.420;2023-02-28T14:34:37;103205.25;;;8.16;39.23
75418;BME280;63997;52.112;5.420;2023-02-28T14:37:13;103196.41;;;8.27;39.13
75418;BME280;63997;52.112;5.420;2023-02-28T14:39:41;103202.03;;;8.31;39.35
75418;BME280;63997;52.112;5.420;2023-02-28T14:44:59;103203.16;;;8.18;39.55
75418;BME280;63997;52.112;5.420;2023-02-28T14:47:31;103202.34;;;8.17;39.35
75418;BME280;63997;52.112;5.420;2023-02-28T14:49:59;103194.41;;;8.17;39.43
75418;BME280;63997;52.112;5.420;2023-02-28T14:52:28;103195.44;;;8.16;39.54
75418;BME280;63997;52.112;5.420;2023-02-28T14:54:59;103200.44;;;8.13;39.35
75418;BME280;63997;52.112;5.420;2023-02-28T14:57:34;103199.09;;;8.10;39.55
75418;BME280;63997;52.112;5.420;2023-02-28T15:02:31;103199.00;;;8.05;39.94
75418;BME280;63997;52.112;5.420;2023-02-28T15:05:02;103200.94;;;8.10;40.11
75418;BME280;63997;52.112;5.420;2023-02-28T15:07:36;103198.75;;;8.07;40.17
75418;BME280;63997;52.112;5.420;2023-02-28T15:10:24;103199.56;;;8.07;40.77
75418;BME280;63997;52.112;5.420;2023-02-28T15:13:02;103195.31;;;8.06;40.28